Time;durP1;ratioP1;P1;durP2;ratioP2;P2;SDS_P1;SDS_P2;PMS_P1;PMS_P2;Temp;Humidity;BMP_temperature;BMP_pressure;BME280_temperature;BME280_humidity;BME280_pressure;Samples;Min_cycle;Max_cycle;Signal;HPM_P1;HPM_P2
2024/01/06 00:01:38;;;;;;;2.67;2.17;;;18.30;62.10;;;;;;5105478;28;20180;-69
2024/01/06 00:04:04;;;;;;;2.40;2.20;;;18.30;62.00;;;;;;5090107;28;20208;-68
2024/01/06 00:06:29;;;;;;;2.35;2.15;;;18.20;62.00;;;;;;5074308;28;20645;-69
2024/01/06 00:08:55;;;;;;;2.65;2.30;;;18.30;62.00;;;;;;5074951;28;20197;-69
2024/01/06 00:11:22;;;;;;;2.38;2.17;;;18.20;61.90;;;;;;5087676;28;20213;-69
2024/01/06 00:13:49;;;;;;;2.20;2.10;;;18.30;62.10;;;;;;5089152;28;20212;-69
2024/01/06 00:16:20;;;;;;;2.28;2.08;;;18.30;62.10;;;;;;5081490;28;20185;-69
2024/01/06 00:18:47;;;;;;;2.50;2.30;;;18.20;61.90;;;;;;5098638;28;20193;-69
2024/01/06 00:21:13;;;;;;;2.47;2.05;;;18.30;62.00;;;;;;5090563;28;20189;-68
2024/01/06 00:23:41;;;;;;;2.25;2.05;;;18.20;62.00;;;;;;5090811;28;20212;-69
2024/01/06 00:26:08;;;;;;;2.20;2.00;;;18.20;61.90;;;;;;5073983;28;20269;-69
2024/01/06 00:28:34;;;;;;;3.10;2.42;;;18.30;62.10;;;;;;5106293;28;20177;-69
2024/01/06 00:30:59;;;;;;;2.40;2.20;;;18.20;62.00;;;;;;5073777;28;20683;-69
2024/01/06 00:33:25;;;;;;;1.95;1.73;;;18.30;62.00;;;;;;5090269;28;20197;-68
2024/01/06 00:35:51;;;;;;;2.17;1.98;;;18.20;62.00;;;;;;5090061;28;20180;-68
2024/01/06 00:38:17;;;;;;;2.20;2.10;;;18.30;62.10;;;;;;5096774;28;20701;-68
2024/01/06 00:40:42;;;;;;;2.22;1.90;;;18.30;62.10;;;;;;5080021;28;20188;-68
2024/01/06 00:43:08;;;;;;;2.30;2.10;;;18.20;62.00;;;;;;5096818;28;20212;-69
2024/01/06 00:45:34;;;;;;;2.22;2.03;;;18.30;62.10;;;;;;5098700;28;20199;-69
2024/01/06 00:47:59;;;;;;;3.33;2.08;;;18.30;62.10;;;;;;5080110;28;20176;-69
2024/01/06 00:50:25;;;;;;;2.50;1.80;;;18.30;62.10;;;;;;5097197;28;20188;-69
2024/01/06 00:52:52;;;;;;;1.70;1.60;;;18.30;62.10;;;;;;5098043;28;20192;-69
2024/01/06 00:55:22;;;;;;;1.73;1.63;;;18.30;62.10;;;;;;5080055;28;20737;-69
2024/01/06 00:57:49;;;;;;;2.63;1.92;;;18.30;62.10;;;;;;5097135;28;20195;-69
2024/01/06 01:00:15;;;;;;;2.30;1.88;;;18.30;62.00;;;;;;5079996;28;20180;-68
2024/01/06 01:02:40;;;;;;;1.95;1.75;;;18.30;62.10;;;;;;5094214;28;20189;-68
2024/01/06 01:05:09;;;;;;;1.90;1.67;;;18.30;62.10;;;;;;5097303;28;20261;-68
2024/01/06 01:07:36;;;;;;;1.77;1.67;;;18.30;62.10;;;;;;5093958;28;20185;-69
2024/01/06 01:10:02;;;;;;;2.13;1.80;;;18.20;62.10;;;;;;5079804;28;20679;-69
2024/01/06 01:12:28;;;;;;;2.08;1.85;;;18.30;62.10;;;;;;5097587;28;20204;-69
2024/01/06 01:14:53;;;;;;;2.10;1.90;;;18.30;62.00;;;;;;5089937;28;20213;-69
2024/01/06 01:17:19;;;;;;;1.70;1.60;;;18.30;62.10;;;;;;5103956;28;20234;-69
2024/01/06 01:19:46;;;;;;;2.25;1.98;;;18.30;62.20;;;;;;5104134;28;20183;-68
2024/01/06 01:22:12;;;;;;;1.88;1.77;;;18.30;62.10;;;;;;5101408;28;20192;-68
2024/01/06 01:24:42;;;;;;;2.28;1.50;;;18.30;62.20;;;;;;5099462;28;20315;-69
2024/01/06 01:27:08;;;;;;;1.60;1.50;;;18.30;62.10;;;;;;5096755;28;20189;-69
2024/01/06 01:29:33;;;;;;;2.05;1.85;;;18.30;62.20;;;;;;5079846;28;20252;-69
2024/01/06 01:31:59;;;;;;;1.80;1.70;;;18.20;62.00;;;;;;5100293;28;20215;-68
2024/01/06 01:34:25;;;;;;;1.80;1.60;;;18.20;62.10;;;;;;5119128;27;20197;-68
2024/01/06 01:36:50;;;;;;;1.58;1.48;;;18.30;62.10;;;;;;5097295;28;20183;-69
2024/01/06 01:39:17;;;;;;;1.83;1.70;;;18.20;62.10;;;;;;5111621;28;20172;-68
2024/01/06 01:41:42;;;;;;;1.75;1.65;;;18.20;62.10;;;;;;5096536;28;20216;-68
2024/01/06 01:44:08;;;;;;;1.60;1.50;;;18.20;62.10;;;;;;5079684;28;20239;-69
2024/01/06 01:46:34;;;;;;;2.33;1.75;;;18.30;62.20;;;;;;5104639;28;20260;-69
2024/01/06 01:49:03;;;;;;;3.05;1.70;;;18.20;62.10;;;;;;5083692;28;20242;-69
2024/01/06 01:51:32;;;;;;;1.30;1.20;;;18.30;62.10;;;;;;5082948;28;20208;-69
2024/01/06 01:54:02;;;;;;;1.83;1.73;;;18.20;62.00;;;;;;5104573;28;20208;-68
2024/01/06 01:56:33;;;;;;;1.83;1.63;;;18.20;62.00;;;;;;5105633;28;20188;-69
2024/01/06 01:59:02;;;;;;;1.45;1.35;;;18.20;62.00;;;;;;5112797;28;20596;-68
2024/01/06 02:01:28;;;;;;;1.67;1.58;;;18.30;62.10;;;;;;5097855;28;20196;-68
2024/01/06 02:03:54;;;;;;;1.67;1.58;;;18.20;62.00;;;;;;5075933;28;20217;-69
2024/01/06 02:06:20;;;;;;;1.50;1.38;;;18.30;62.10;;;;;;5090393;28;20192;-69
2024/01/06 02:08:45;;;;;;;1.67;1.52;;;18.20;62.00;;;;;;5093037;28;20185;-69
2024/01/06 02:11:11;;;;;;;1.75;1.65;;;18.20;62.00;;;;;;5092779;28;20213;-69
2024/01/06 02:13:37;;;;;;;2.30;1.50;;;18.30;62.20;;;;;;5075796;28;20235;-69
2024/01/06 02:16:05;;;;;;;1.95;1.60;;;18.20;62.00;;;;;;5102456;28;20234;-68
2024/01/06 02:18:32;;;;;;;2.10;1.48;;;18.20;62.00;;;;;;5100507;28;20203;-68
2024/01/06 02:21:01;;;;;;;2.00;1.75;;;18.20;62.00;;;;;;5093829;28;20216;-68
2024/01/06 02:23:28;;;;;;;1.48;1.35;;;18.20;62.00;;;;;;5109449;28;20213;-69
2024/01/06 02:25:54;;;;;;;1.70;1.58;;;18.20;62.00;;;;;;5080831;28;20319;-68
2024/01/06 02:28:20;;;;;;;1.92;1.60;;;18.20;62.00;;;;;;5075670;28;20212;-68
2024/01/06 02:30:46;;;;;;;2.35;1.63;;;18.20;62.00;;;;;;5092056;28;20252;-68
2024/01/06 02:33:12;;;;;;;2.03;1.40;;;18.20;62.00;;;;;;5075680;28;20201;-69
2024/01/06 02:35:39;;;;;;;1.98;1.73;;;18.30;62.10;;;;;;5092341;28;20185;-69
2024/01/06 02:38:06;;;;;;;1.48;1.38;;;18.20;62.00;;;;;;5093151;28;20234;-68
2024/01/06 02:40:32;;;;;;;1.38;1.20;;;18.20;62.00;;;;;;5075311;28;20177;-68
2024/01/06 02:42:58;;;;;;;1.92;1.40;;;18.30;62.10;;;;;;5073775;28;20273;-68
2024/01/06 02:45:24;;;;;;;1.40;1.30;;;18.20;62.00;;;;;;5072025;28;20178;-68
2024/01/06 02:47:51;;;;;;;1.70;1.60;;;18.20;61.90;;;;;;5090228;28;20185;-68
2024/01/06 02:50:17;;;;;;;1.42;1.33;;;18.20;61.90;;;;;;5096310;28;20196;-68
2024/01/06 02:52:45;;;;;;;1.40;1.30;;;18.20;61.90;;;;;;5095812;28;20212;-67
2024/01/06 02:55:11;;;;;;;1.58;1.48;;;18.30;62.00;;;;;;5105594;28;20306;-68
2024/01/06 02:57:38;;;;;;;1.45;1.35;;;18.30;62.10;;;;;;5075245;28;20188;-68
2024/01/06 03:00:04;;;;;;;1.50;1.40;;;18.20;61.90;;;;;;5073656;28;20278;-68
2024/01/06 03:02:30;;;;;;;1.65;1.55;;;18.20;62.00;;;;;;5091852;28;20193;-69
2024/01/06 03:04:56;;;;;;;1.77;1.50;;;18.20;62.00;;;;;;5081584;28;20217;-69
2024/01/06 03:07:22;;;;;;;2.22;1.40;;;18.20;62.00;;;;;;5091732;28;20193;-69
2024/01/06 03:09:47;;;;;;;1.50;1.40;;;18.30;62.00;;;;;;5081775;28;20188;-68
2024/01/06 03:12:14;;;;;;;1.40;1.30;;;18.20;62.00;;;;;;5081255;28;20204;-68
2024/01/06 03:14:39;;;;;;;1.92;1.60;;;18.20;62.00;;;;;;5094616;28;20220;-69
2024/01/06 03:17:05;;;;;;;1.42;1.30;;;18.20;62.00;;;;;;5074245;28;20238;-68
2024/01/06 03:19:31;;;;;;;2.78;1.52;;;18.20;62.00;;;;;;5101116;28;20184;-68
2024/01/06 03:21:57;;;;;;;1.30;1.20;;;18.20;62.00;;;;;;5091105;28;20196;-68
2024/01/06 03:24:27;;;;;;;1.50;1.40;;;18.20;62.00;;;;;;5074425;28;20287;-68
2024/01/06 03:26:53;;;;;;;1.50;1.25;;;18.20;62.00;;;;;;5074089;28;20189;-68
2024/01/06 03:29:19;;;;;;;1.30;1.20;;;18.20;61.90;;;;;;5091285;28;20204;-68
2024/01/06 03:31:45;;;;;;;1.40;1.30;;;18.20;61.90;;;;;;5091251;28;20212;-68
2024/01/06 03:34:11;;;;;;;1.50;1.40;;;18.20;62.00;;;;;;5076468;28;20266;-69
2024/01/06 03:36:41;;;;;;;1.73;1.45;;;18.20;62.00;;;;;;5074292;28;20230;-68
2024/01/06 03:39:07;;;;;;;1.30;1.20;;;18.20;61.90;;;;;;5072668;28;20197;-68
2024/01/06 03:41:33;;;;;;;1.80;1.60;;;18.20;62.00;;;;;;5073947;28;20181;-68
2024/01/06 03:43:59;;;;;;;1.85;1.10;;;18.20;61.90;;;;;;5090653;28;20587;-68
2024/01/06 03:46:25;;;;;;;2.03;1.20;;;18.20;61.90;;;;;;5091305;28;20181;-68
2024/01/06 03:48:51;;;;;;;1.63;1.30;;;18.20;62.00;;;;;;5098663;28;20191;-70
2024/01/06 03:51:16;;;;;;;1.17;1.17;;;18.20;61.90;;;;;;5078212;28;20215;-68
2024/01/06 03:53:42;;;;;;;2.05;1.27;;;18.20;62.00;;;;;;5080697;28;20229;-68
2024/01/06 03:56:08;;;;;;;1.52;1.23;;;18.20;61.90;;;;;;5090135;28;20190;-68
2024/01/06 03:58:34;;;;;;;1.33;1.10;;;18.20;61.90;;;;;;5091136;28;20196;-68
2024/01/06 04:01:01;;;;;;;1.15;1.05;;;18.20;61.90;;;;;;5089537;28;20189;-68
2024/01/06 04:03:26;;;;;;;1.45;1.35;;;18.20;61.90;;;;;;5107517;28;20291;-68
2024/01/06 04:05:52;;;;;;;1.75;1.50;;;18.20;61.90;;;;;;5080243;28;20270;-69
2024/01/06 04:08:18;;;;;;;1.52;1.20;;;18.20;61.90;;;;;;5074003;28;20189;-69
2024/01/06 04:10:44;;;;;;;1.17;1.05;;;18.20;61.90;;;;;;5073202;28;20200;-68
2024/01/06 04:13:16;;;;;;;1.27;1.17;;;18.20;62.00;;;;;;5090522;28;20219;-68
2024/01/06 04:15:42;;;;;;;1.63;1.05;;;18.20;61.80;;;;;;5090665;28;20270;-68
2024/01/06 04:18:09;;;;;;;1.27;1.17;;;18.20;61.90;;;;;;5090244;28;20189;-68
2024/01/06 04:20:35;;;;;;;0.98;0.98;;;18.20;61.90;;;;;;5090469;28;20184;-68
2024/01/06 04:23:00;;;;;;;0.88;0.88;;;18.20;61.90;;;;;;5090194;28;20341;-68
2024/01/06 04:25:26;;;;;;;1.40;1.30;;;18.20;61.80;;;;;;5073897;28;20213;-68
2024/01/06 04:27:52;;;;;;;1.20;1.10;;;18.20;61.80;;;;;;5073948;28;20185;-68
2024/01/06 04:30:19;;;;;;;1.10;1.10;;;18.20;61.80;;;;;;5079505;28;20294;-69
2024/01/06 04:32:44;;;;;;;1.60;1.13;;;18.20;61.80;;;;;;5097410;28;20236;-70
2024/01/06 04:35:10;;;;;;;0.98;0.98;;;18.20;61.80;;;;;;5073363;28;20736;-68
2024/01/06 04:37:36;;;;;;;1.25;1.15;;;18.20;61.80;;;;;;5091591;28;20185;-68
2024/01/06 04:40:03;;;;;;;1.30;0.82;;;18.20;61.80;;;;;;5088356;28;20189;-68
2024/01/06 04:42:29;;;;;;;1.20;1.10;;;18.20;61.80;;;;;;5095190;28;20188;-68
2024/01/06 04:44:55;;;;;;;1.05;0.98;;;18.20;61.70;;;;;;5090152;28;20219;-68
2024/01/06 04:47:20;;;;;;;1.10;1.02;;;18.20;61.80;;;;;;5093508;28;20186;-69
2024/01/06 04:49:46;;;;;;;1.38;1.27;;;18.20;61.80;;;;;;5083898;28;20199;-69
2024/01/06 04:52:12;;;;;;;1.40;1.30;;;18.20;61.80;;;;;;5071129;28;20205;-68
2024/01/06 04:54:38;;;;;;;1.30;1.20;;;18.20;61.80;;;;;;5081981;28;20201;-68
2024/01/06 04:57:04;;;;;;;1.10;1.00;;;18.20;61.80;;;;;;5090231;28;20682;-68
2024/01/06 04:59:30;;;;;;;1.30;1.10;;;18.20;61.80;;;;;;5083131;28;20187;-68
2024/01/06 05:01:58;;;;;;;0.88;0.88;;;18.20;61.70;;;;;;5101745;28;20188;-68
2024/01/06 05:04:24;;;;;;;1.20;1.10;;;18.20;61.80;;;;;;5089866;28;20216;-68
2024/01/06 05:06:51;;;;;;;1.38;1.20;;;18.20;61.80;;;;;;5073293;28;20199;-68
2024/01/06 05:09:17;;;;;;;1.40;1.30;;;18.20;61.80;;;;;;5091133;28;20181;-69
2024/01/06 05:11:44;;;;;;;1.63;1.40;;;18.20;61.70;;;;;;5078354;28;20210;-67
2024/01/06 05:14:10;;;;;;;1.27;1.17;;;18.20;61.70;;;;;;5104539;28;20244;-68
2024/01/06 05:16:36;;;;;;;1.08;1.08;;;18.10;61.60;;;;;;5078145;28;20180;-68
2024/01/06 05:19:02;;;;;;;1.30;1.20;;;18.10;61.60;;;;;;5089950;28;20189;-69
2024/01/06 05:21:29;;;;;;;1.13;1.10;;;18.10;61.60;;;;;;5089836;28;20189;-68
2024/01/06 05:23:54;;;;;;;1.48;1.08;;;18.20;61.80;;;;;;5082977;28;20244;-68
2024/01/06 05:26:20;;;;;;;1.80;0.98;;;18.20;61.70;;;;;;5110830;27;20229;-67
2024/01/06 05:28:46;;;;;;;1.10;1.10;;;18.20;61.70;;;;;;5086188;28;20221;-68
2024/01/06 05:31:12;;;;;;;1.00;1.00;;;18.20;61.70;;;;;;5094558;28;20212;-68
2024/01/06 05:33:37;;;;;;;1.60;1.13;;;18.20;61.60;;;;;;5094568;28;20254;-68
2024/01/06 05:36:04;;;;;;;1.33;1.00;;;18.20;61.60;;;;;;5094603;28;20189;-68
2024/01/06 05:38:29;;;;;;;1.05;1.00;;;18.20;61.60;;;;;;5093475;28;20193;-68
2024/01/06 05:40:56;;;;;;;1.23;0.77;;;18.20;61.60;;;;;;5076566;28;20184;-68
2024/01/06 05:43:21;;;;;;;1.20;1.10;;;18.20;61.60;;;;;;5094199;28;20224;-68
2024/01/06 05:45:47;;;;;;;1.30;1.10;;;18.20;61.70;;;;;;5076625;28;20201;-69
2024/01/06 05:48:13;;;;;;;1.20;1.10;;;18.20;61.70;;;;;;5101523;28;20202;-68
2024/01/06 05:50:39;;;;;;;1.55;1.13;;;18.20;61.60;;;;;;5079227;28;20194;-68
2024/01/06 05:53:05;;;;;;;0.95;0.93;;;18.20;61.70;;;;;;5106977;28;20720;-69
2024/01/06 05:55:31;;;;;;;1.17;1.00;;;18.20;61.70;;;;;;5093453;28;20189;-68
2024/01/06 05:57:57;;;;;;;1.58;1.02;;;18.20;61.60;;;;;;5097841;28;20207;-68
2024/01/06 06:00:23;;;;;;;1.17;0.88;;;18.20;61.70;;;;;;5080918;28;20558;-68
2024/01/06 06:02:49;;;;;;;0.90;0.90;;;18.20;61.60;;;;;;5094033;28;20199;-69
2024/01/06 06:05:15;;;;;;;1.08;0.90;;;18.20;61.70;;;;;;5093121;28;20185;-68
2024/01/06 06:07:42;;;;;;;1.00;1.00;;;18.10;61.50;;;;;;5081100;28;20195;-68
2024/01/06 06:10:09;;;;;;;1.45;1.23;;;18.20;61.60;;;;;;5092690;28;20289;-68
2024/01/06 06:12:35;;;;;;;1.23;1.13;;;18.20;61.60;;;;;;5093805;28;20684;-68
2024/01/06 06:15:03;;;;;;;1.00;1.00;;;18.20;61.70;;;;;;5076265;28;20185;-68
2024/01/06 06:17:30;;;;;;;1.00;0.90;;;18.20;61.60;;;;;;5075909;28;20185;-68
2024/01/06 06:19:57;;;;;;;1.38;1.27;;;18.20;61.60;;;;;;5109880;28;20189;-68
2024/01/06 06:22:26;;;;;;;1.23;1.02;;;18.20;61.60;;;;;;5100578;28;20254;-68
2024/01/06 06:24:52;;;;;;;0.93;0.82;;;18.20;61.60;;;;;;5093731;28;20266;-68
2024/01/06 06:27:18;;;;;;;1.10;0.98;;;18.20;61.60;;;;;;5083691;28;20217;-68
2024/01/06 06:29:44;;;;;;;1.25;0.90;;;18.20;61.50;;;;;;5092720;28;20257;-69
2024/01/06 06:32:09;;;;;;;1.33;1.00;;;18.20;61.60;;;;;;5082934;28;20223;-68
2024/01/06 06:34:35;;;;;;;1.10;1.00;;;18.20;61.50;;;;;;5099863;28;20207;-68
2024/01/06 06:37:01;;;;;;;1.00;1.00;;;18.10;61.40;;;;;;5089606;28;20189;-69
2024/01/06 06:39:27;;;;;;;1.10;1.00;;;18.20;61.50;;;;;;5095523;28;20656;-68
2024/01/06 06:41:52;;;;;;;1.58;0.80;;;18.10;61.40;;;;;;5073288;28;20209;-68
2024/01/06 06:44:18;;;;;;;1.58;1.10;;;18.20;61.50;;;;;;5089789;28;20224;-68
2024/01/06 06:46:44;;;;;;;0.85;0.85;;;18.20;61.50;;;;;;5075530;28;20211;-68
2024/01/06 06:49:10;;;;;;;0.80;0.80;;;18.20;61.50;;;;;;5092235;28;20181;-69
2024/01/06 06:51:35;;;;;;;1.35;1.10;;;18.20;61.50;;;;;;5095679;28;20285;-68
2024/01/06 06:54:01;;;;;;;1.30;0.93;;;18.10;61.40;;;;;;5096201;28;20215;-68
2024/01/06 06:56:27;;;;;;;1.10;0.98;;;18.20;61.60;;;;;;5096635;28;20189;-68
2024/01/06 06:58:52;;;;;;;1.42;1.30;;;18.20;61.50;;;;;;5092156;28;20216;-68
2024/01/06 07:01:18;;;;;;;1.35;1.00;;;18.10;61.50;;;;;;5100835;28;20196;-68
2024/01/06 07:03:44;;;;;;;1.27;1.10;;;18.10;61.40;;;;;;5095339;28;20261;-68
2024/01/06 07:06:14;;;;;;;1.33;1.20;;;18.20;61.60;;;;;;5101208;28;20250;-69
2024/01/06 07:08:41;;;;;;;1.02;0.90;;;18.20;61.50;;;;;;5078931;28;20196;-68
2024/01/06 07:11:08;;;;;;;1.13;0.90;;;18.10;61.40;;;;;;5095300;28;20292;-68
2024/01/06 07:13:34;;;;;;;1.25;0.98;;;18.10;61.40;;;;;;5092783;28;20250;-68
2024/01/06 07:16:00;;;;;;;0.88;0.88;;;18.20;61.40;;;;;;5074687;28;20193;-68
2024/01/06 07:18:26;;;;;;;1.00;0.90;;;18.20;61.40;;;;;;5091901;28;20192;-68
2024/01/06 07:20:51;;;;;;;1.17;0.85;;;18.20;61.50;;;;;;5110011;27;20220;-68
2024/01/06 07:23:17;;;;;;;0.90;0.90;;;18.20;61.40;;;;;;5094747;28;20239;-69
2024/01/06 07:25:43;;;;;;;1.27;1.00;;;18.20;61.40;;;;;;5095024;28;20179;-68
2024/01/06 07:28:09;;;;;;;1.38;0.80;;;18.10;61.30;;;;;;5094981;28;20214;-68
2024/01/06 07:30:34;;;;;;;1.20;1.02;;;18.10;61.20;;;;;;5087647;28;20181;-68
2024/01/06 07:33:00;;;;;;;0.90;0.90;;;18.20;61.40;;;;;;5080555;28;20217;-68
2024/01/06 07:35:26;;;;;;;1.02;0.90;;;18.10;61.20;;;;;;5089962;28;20185;-68
2024/01/06 07:37:53;;;;;;;1.00;0.85;;;18.20;61.30;;;;;;5074295;28;20185;-69
2024/01/06 07:40:18;;;;;;;1.80;1.23;;;18.10;61.30;;;;;;5101367;28;20229;-68
2024/01/06 07:42:44;;;;;;;1.40;1.30;;;18.20;61.30;;;;;;5094286;28;20193;-68
2024/01/06 07:45:10;;;;;;;1.15;1.05;;;18.20;61.30;;;;;;5074718;28;20307;-68
2024/01/06 07:47:36;;;;;;;1.00;0.95;;;18.10;61.30;;;;;;5081271;28;20188;-68
2024/01/06 07:50:04;;;;;;;0.90;0.90;;;18.10;61.30;;;;;;5073897;28;20237;-68
2024/01/06 07:52:30;;;;;;;0.90;0.80;;;18.10;61.30;;;;;;5106542;28;20217;-68
2024/01/06 07:54:56;;;;;;;1.02;0.90;;;18.20;61.30;;;;;;5094310;28;20204;-68
2024/01/06 07:57:22;;;;;;;1.17;1.08;;;18.10;61.30;;;;;;5090654;28;20321;-68
2024/01/06 07:59:48;;;;;;;1.67;1.20;;;18.10;61.30;;;;;;5073103;28;20239;-67
2024/01/06 08:02:13;;;;;;;0.90;0.90;;;18.20;61.40;;;;;;5090771;28;20196;-67
2024/01/06 08:04:39;;;;;;;1.17;1.00;;;18.10;61.30;;;;;;5090386;28;20216;-69
2024/01/06 08:07:05;;;;;;;0.93;0.90;;;18.20;61.40;;;;;;5079985;28;20196;-68
2024/01/06 08:09:31;;;;;;;1.00;0.90;;;18.20;61.40;;;;;;5089171;28;20193;-68
2024/01/06 08:11:56;;;;;;;1.27;0.77;;;18.10;61.30;;;;;;5076416;28;20216;-70
2024/01/06 08:14:22;;;;;;;1.20;1.10;;;18.20;61.30;;;;;;5084537;28;20219;-68
2024/01/06 08:16:48;;;;;;;1.00;1.00;;;18.20;61.30;;;;;;5072734;28;20210;-68
2024/01/06 08:19:13;;;;;;;1.17;1.02;;;18.20;61.40;;;;;;5089643;28;20189;-69
2024/01/06 08:21:39;;;;;;;0.95;0.90;;;18.10;61.20;;;;;;5091610;28;20192;-68
2024/01/06 08:24:05;;;;;;;1.33;1.10;;;18.20;61.30;;;;;;5107400;28;20232;-68
2024/01/06 08:26:31;;;;;;;1.25;1.00;;;18.20;61.30;;;;;;5090627;28;20189;-69
2024/01/06 08:28:57;;;;;;;1.10;0.90;;;18.20;61.20;;;;;;5077127;28;20189;-68
2024/01/06 08:31:23;;;;;;;0.77;0.77;;;18.20;61.30;;;;;;5092863;28;20217;-69
2024/01/06 08:33:48;;;;;;;0.80;0.80;;;18.20;61.30;;;;;;5090090;28;20209;-69
2024/01/06 08:36:14;;;;;;;0.82;0.82;;;18.20;61.30;;;;;;5085992;28;20182;-69
2024/01/06 08:38:40;;;;;;;1.58;0.95;;;18.10;61.30;;;;;;5092187;28;20671;-69
2024/01/06 08:41:05;;;;;;;1.23;1.13;;;18.20;61.30;;;;;;5070088;28;20194;-69
2024/01/06 08:43:31;;;;;;;1.02;0.93;;;18.10;61.20;;;;;;5088331;28;20200;-69
2024/01/06 08:45:57;;;;;;;1.05;0.70;;;18.10;61.20;;;;;;5089968;28;20192;-68
2024/01/06 08:48:23;;;;;;;1.10;1.00;;;18.10;61.30;;;;;;5091209;28;20193;-69
2024/01/06 08:50:48;;;;;;;1.75;1.00;;;18.10;61.20;;;;;;5074187;28;20243;-68
2024/01/06 08:53:15;;;;;;;0.73;0.73;;;18.10;61.20;;;;;;5083540;28;20208;-69
2024/01/06 08:55:41;;;;;;;1.15;1.00;;;18.20;61.30;;;;;;5083685;28;20687;-69
2024/01/06 08:58:07;;;;;;;0.73;0.73;;;18.20;61.40;;;;;;5092885;28;20183;-68
2024/01/06 09:00:32;;;;;;;1.17;0.95;;;18.10;61.20;;;;;;5091955;28;20248;-69
2024/01/06 09:02:58;;;;;;;1.25;0.80;;;18.10;61.20;;;;;;5095266;28;20212;-68
2024/01/06 09:05:24;;;;;;;1.13;1.02;;;18.20;61.30;;;;;;5087623;28;20181;-68
2024/01/06 09:07:50;;;;;;;0.80;0.80;;;18.20;61.30;;;;;;5077066;28;20184;-68
2024/01/06 09:10:19;;;;;;;1.15;0.80;;;18.20;61.20;;;;;;5094482;28;20185;-68
2024/01/06 09:12:45;;;;;;;0.90;0.90;;;18.20;61.20;;;;;;5095293;28;20252;-68
2024/01/06 09:15:11;;;;;;;0.90;0.90;;;18.20;61.90;;;;;;5082494;28;20196;-70
2024/01/06 09:17:36;;;;;;;0.73;0.73;;;18.20;61.10;;;;;;5079228;28;20184;-67
2024/01/06 09:20:03;;;;;;;1.13;1.02;;;18.20;61.10;;;;;;5094009;28;20185;-68
2024/01/06 09:22:29;;;;;;;1.45;0.98;;;18.30;61.30;;;;;;5108383;28;20184;-68
2024/01/06 09:24:54;;;;;;;2.05;0.95;;;18.20;61.10;;;;;;5076649;28;20208;-68
2024/01/06 09:27:20;;;;;;;1.73;0.80;;;18.20;61.10;;;;;;5112330;28;20180;-68
2024/01/06 09:29:46;;;;;;;0.80;0.80;;;18.20;61.10;;;;;;5089615;28;20185;-69
2024/01/06 09:32:13;;;;;;;1.17;0.70;;;18.30;61.30;;;;;;5078424;28;20228;-69
2024/01/06 09:34:39;;;;;;;0.70;0.70;;;18.20;61.20;;;;;;5095112;28;20258;-69
2024/01/06 09:37:04;;;;;;;1.02;1.02;;;18.20;61.20;;;;;;5091665;28;20276;-69
2024/01/06 09:39:33;;;;;;;1.10;0.90;;;18.20;62.00;;;;;;5079978;28;20188;-69
2024/01/06 09:41:59;;;;;;;1.17;1.08;;;18.30;61.30;;;;;;5079818;28;20568;-68
2024/01/06 09:44:25;;;;;;;0.80;0.80;;;18.20;61.20;;;;;;5103713;28;20209;-69
2024/01/06 09:46:51;;;;;;;0.77;0.77;;;18.20;61.20;;;;;;5100284;28;20187;-69
2024/01/06 09:49:25;;;;;;;0.80;0.80;;;18.20;61.20;;;;;;5110361;28;20256;-69
2024/01/06 09:51:58;;;;;;;1.30;0.68;;;18.20;61.20;;;;;;5084667;28;20243;-69
2024/01/06 09:54:29;;;;;;;1.00;0.80;;;18.20;61.30;;;;;;5094429;28;20197;-69
2024/01/06 09:56:56;;;;;;;0.85;0.77;;;18.20;61.20;;;;;;5093359;28;20261;-69
2024/01/06 09:59:22;;;;;;;0.70;0.70;;;18.20;61.30;;;;;;5094107;28;20193;-70
2024/01/06 10:01:49;;;;;;;0.93;0.77;;;18.30;61.40;;;;;;5089688;28;20204;-69
2024/01/06 10:04:15;;;;;;;0.80;0.65;;;18.20;61.30;;;;;;5090027;28;20205;-69
2024/01/06 10:06:42;;;;;;;0.90;0.90;;;18.20;61.30;;;;;;5090858;28;20199;-69
2024/01/06 10:09:07;;;;;;;0.80;0.80;;;18.30;61.30;;;;;;5092472;28;20193;-69
2024/01/06 10:11:36;;;;;;;0.70;0.63;;;18.30;61.30;;;;;;5089424;28;20207;-69
2024/01/06 10:14:03;;;;;;;1.00;0.90;;;18.30;61.30;;;;;;5072661;28;20212;-69
2024/01/06 10:16:29;;;;;;;0.80;0.80;;;18.30;61.30;;;;;;5078653;28;20192;-70
2024/01/06 10:18:54;;;;;;;0.68;0.60;;;18.20;62.10;;;;;;5092217;28;20177;-71
2024/01/06 10:21:26;;;;;;;0.88;0.88;;;18.30;61.40;;;;;;5091664;28;20181;-69
2024/01/06 10:23:54;;;;;;;0.75;0.75;;;18.20;61.30;;;;;;5073069;28;20251;-70
2024/01/06 10:26:19;;;;;;;0.77;0.77;;;18.20;62.10;;;;;;5087891;28;20192;-67
2024/01/06 10:28:47;;;;;;;0.70;0.70;;;18.30;61.30;;;;;;5093705;28;20193;-69
2024/01/06 10:31:13;;;;;;;0.80;0.80;;;18.20;61.20;;;;;;5094697;28;20223;-69
2024/01/06 10:33:39;;;;;;;0.80;0.80;;;18.20;61.30;;;;;;5080151;28;20212;-69
2024/01/06 10:36:06;;;;;;;1.48;0.90;;;18.30;61.40;;;;;;5103387;27;20181;-70
2024/01/06 10:38:34;;;;;;;0.73;0.60;;;18.20;61.30;;;;;;5074727;28;20181;-70
2024/01/06 10:41:07;;;;;;;0.93;0.80;;;18.20;61.30;;;;;;5075529;28;20185;-69
2024/01/06 10:43:40;;;;;;;0.70;0.70;;;18.20;61.30;;;;;;5106845;28;20609;-69
2024/01/06 10:46:10;;;;;;;0.80;0.80;;;18.20;61.30;;;;;;5085380;28;20189;-67
2024/01/06 10:48:44;;;;;;;1.83;0.70;;;18.30;61.40;;;;;;5090358;28;20231;-69
2024/01/06 10:51:13;;;;;;;0.77;0.77;;;18.30;61.40;;;;;;5085511;28;20277;-67
2024/01/06 10:53:41;;;;;;;0.70;0.70;;;18.30;61.40;;;;;;5088894;28;20212;-68
2024/01/06 10:56:08;;;;;;;0.50;0.50;;;18.30;61.40;;;;;;5092102;28;20223;-68
2024/01/06 10:58:42;;;;;;;1.05;0.80;;;18.30;61.40;;;;;;5108758;28;20189;-67
2024/01/06 11:01:09;;;;;;;1.23;0.73;;;18.20;61.30;;;;;;5082099;28;20207;-67
2024/01/06 11:03:40;;;;;;;0.68;0.65;;;18.30;61.40;;;;;;5100695;28;20281;-71
2024/01/06 11:06:10;;;;;;;1.17;0.98;;;18.30;61.40;;;;;;5075019;28;20237;-68
2024/01/06 11:08:49;;;;;;;4.30;0.90;;;18.30;61.40;;;;;;5074615;28;20229;-70
2024/01/06 11:11:23;;;;;;;0.77;0.77;;;18.30;61.30;;;;;;5086155;28;20208;-70
2024/01/06 11:13:49;;;;;;;0.82;0.82;;;18.30;61.40;;;;;;5091152;28;20245;-70
2024/01/06 11:16:35;;;;;;;0.82;0.70;;;18.30;61.40;;;;;;5108035;28;20196;-69
2024/01/06 11:19:02;;;;;;;0.82;0.80;;;18.30;61.40;;;;;;5092155;28;20180;-71
2024/01/06 11:21:33;;;;;;;0.70;0.70;;;18.30;61.40;;;;;;5092418;28;20177;-70
2024/01/06 11:24:24;;;;;;;0.90;0.52;;;18.30;61.30;;;;;;5091870;28;20213;-70
2024/01/06 11:26:52;;;;;;;0.70;0.70;;;18.30;61.40;;;;;;5108812;28;20189;-68
2024/01/06 11:29:20;;;;;;;1.13;0.70;;;18.30;61.50;;;;;;5092696;28;20280;-68
2024/01/06 11:32:38;;;;;;;0.80;0.80;;;18.30;61.40;;;;;;5091359;28;20213;-68
2024/01/06 11:35:10;;;;;;;0.90;0.77;;;18.30;61.40;;;;;;5084434;28;20188;-68
2024/01/06 11:37:51;;;;;;;0.70;0.70;;;18.30;61.40;;;;;;5090342;28;20180;-67
2024/01/06 11:40:24;;;;;;;0.98;0.70;;;18.30;61.40;;;;;;5084519;28;20189;-67
2024/01/06 11:43:11;;;;;;;0.95;0.90;;;18.30;61.40;;;;;;5073055;28;20195;-68
2024/01/06 11:45:41;;;;;;;1.02;0.90;;;18.30;61.40;;;;;;5087339;28;20177;-69
2024/01/06 11:48:10;;;;;;;0.63;0.60;;;18.30;61.40;;;;;;5106311;28;20185;-67
2024/01/06 11:50:38;;;;;;;0.70;0.70;;;18.30;61.40;;;;;;5091134;28;20184;-67
2024/01/06 11:53:07;;;;;;;1.50;0.90;;;18.30;61.50;;;;;;5090690;28;20216;-67
2024/01/06 11:55:33;;;;;;;0.68;0.68;;;18.30;61.40;;;;;;5092111;28;20181;-68
2024/01/06 11:58:02;;;;;;;0.80;0.60;;;18.30;61.40;;;;;;5098489;28;20203;-68
2024/01/06 12:00:29;;;;;;;0.80;0.70;;;18.30;61.40;;;;;;5090880;28;20215;-68
2024/01/06 12:03:00;;;;;;;0.50;0.50;;;18.30;61.50;;;;;;5092055;28;20663;-68
2024/01/06 12:05:28;;;;;;;0.63;0.60;;;18.30;61.50;;;;;;5097231;28;20184;-68
2024/01/06 12:08:06;;;;;;;0.65;0.60;;;18.30;61.50;;;;;;5090732;28;20192;-68
2024/01/06 12:10:33;;;;;;;1.00;0.90;;;18.30;62.30;;;;;;5092042;28;20181;-67
2024/01/06 12:13:04;;;;;;;0.55;0.55;;;18.30;61.50;;;;;;5090401;28;20220;-67
2024/01/06 12:15:32;;;;;;;0.77;0.65;;;18.30;61.40;;;;;;5090939;28;20189;-68
2024/01/06 12:17:59;;;;;;;1.00;0.70;;;18.30;61.50;;;;;;5090656;28;20180;-68
2024/01/06 12:20:28;;;;;;;0.70;0.68;;;18.30;61.50;;;;;;5105045;28;20232;-67
2024/01/06 12:22:55;;;;;;;0.80;0.80;;;18.30;61.50;;;;;;5097235;28;20193;-67
2024/01/06 12:25:23;;;;;;;0.60;0.60;;;18.30;61.50;;;;;;5090643;28;20271;-69
2024/01/06 12:27:50;;;;;;;0.90;0.65;;;18.30;61.60;;;;;;5091315;28;20287;-70
2024/01/06 12:30:21;;;;;;;0.60;0.60;;;18.30;61.60;;;;;;5093127;28;20195;-66
2024/01/06 12:32:49;;;;;;;0.60;0.60;;;18.30;61.50;;;;;;5109707;28;20361;-67
2024/01/06 12:35:15;;;;;;;0.70;0.70;;;18.30;61.50;;;;;;5105426;28;20173;-69
2024/01/06 12:37:42;;;;;;;0.60;0.60;;;18.30;61.50;;;;;;5073686;28;20193;-69
2024/01/06 12:40:10;;;;;;;0.60;0.60;;;18.30;61.50;;;;;;5090428;28;20187;-69
2024/01/06 12:42:36;;;;;;;0.75;0.75;;;18.30;61.60;;;;;;5073041;28;20192;-69
2024/01/06 12:45:02;;;;;;;0.70;0.65;;;18.30;61.50;;;;;;5090118;28;20244;-71
2024/01/06 12:47:28;;;;;;;0.70;0.70;;;18.30;61.50;;;;;;5107251;28;20193;-68